sensor_id;sensor_type;location;lat;lon;timestamp;temperature;humidity
15452;DHT22;7827;53.594;9.938;2022-07-09T00:01:48;16.40;99.90
15452;DHT22;7827;53.594;9.938;2022-07-09T00:04:16;16.30;99.90
15452;DHT22;7827;53.594;9.938;2022-07-09T00:06:46;16.30;99.90
15452;DHT22;7827;53.594;9.938;2022-07-09T00:09:14;16.30;99.90
15452;DHT22;7827;53.594;9.938;2022-07-09T00:11:42;16.30;99.90
15452;DHT22;7827;53.594;9.938;2022-07-09T00:14:10;16.30;99.90
15452;DHT22;7827;53.594;9.938;2022-07-09T00:16:39;16.30;99.90
15452;DHT22;7827;53.594;9.938;2022-07-09T00:19:07;16.30;99.90
15452;DHT22;7827;53.594;9.938;2022-07-09T00:21:35;16.20;99.90
15452;DHT22;7827;53.594;9.938;2022-07-09T00:24:05;16.10;99.90
15452;DHT22;7827;53.594;9.938;2022-07-09T00:26:34;16.10;99.90
15452;DHT22;7827;53.594;9.938;2022-07-09T00:29:02;16.20;99.90
15452;DHT22;7827;53.594;9.938;2022-07-09T00:31:31;16.10;99.90
15452;DHT22;7827;53.594;9.938;2022-07-09T00:33:59;16.10;99.90
15452;DHT22;7827;53.594;9.938;2022-07-09T00:36:27;16.10;99.90
15452;DHT22;7827;53.594;9.938;2022-07-09T00:38:56;16.10;99.90
15452;DHT22;7827;53.594;9.938;2022-07-09T00:41:25;16.10;99.90
15452;DHT22;7827;53.594;9.938;2022-07-09T00:43:54;16.10;99.90
15452;DHT22;7827;53.594;9.938;2022-07-09T00:46:22;16.10;99.90
15452;DHT22;7827;53.594;9.938;2022-07-09T00:48:50;16.00;99.90
15452;DHT22;7827;53.594;9.938;2022-07-09T00:51:19;15.90;99.90
15452;DHT22;7827;53.594;9.938;2022-07-09T00:53:48;15.90;99.90
15452;DHT22;7827;53.594;9.938;2022-07-09T00:56:17;16.00;99.90
15452;DHT22;7827;53.594;9.938;2022-07-09T00:58:48;16.00;99.90
15452;DHT22;7827;53.594;9.938;2022-07-09T01:01:16;16.00;99.90
15452;DHT22;7827;53.594;9.938;2022-07-09T01:03:45;16.10;99.90
15452;DHT22;7827;53.594;9.938;2022-07-09T01:06:13;16.10;99.90
15452;DHT22;7827;53.594;9.938;2022-07-09T01:08:42;16.20;99.90
15452;DHT22;7827;53.594;9.938;2022-07-09T01:11:10;16.10;99.90
15452;DHT22;7827;53.594;9.938;2022-07-09T01:13:39;16.00;99.90
15452;DHT22;7827;53.594;9.938;2022-07-09T01:16:13;16.00;99.90
15452;DHT22;7827;53.594;9.938;2022-07-09T01:18:44;16.10;99.90
15452;DHT22;7827;53.594;9.938;2022-07-09T01:21:14;16.10;99.90
15452;DHT22;7827;53.594;9.938;2022-07-09T01:23:43;16.00;99.90
15452;DHT22;7827;53.594;9.938;2022-07-09T01:26:11;16.00;99.90
15452;DHT22;7827;53.594;9.938;2022-07-09T01:28:40;16.00;99.90
15452;DHT22;7827;53.594;9.938;2022-07-09T01:31:08;16.00;99.90
15452;DHT22;7827;53.594;9.938;2022-07-09T01:33:37;16.00;99.90
15452;DHT22;7827;53.594;9.938;2022-07-09T01:36:06;15.90;99.90
15452;DHT22;7827;53.594;9.938;2022-07-09T01:38:36;15.80;99.90
15452;DHT22;7827;53.594;9.938;2022-07-09T01:41:04;15.90;99.90
15452;DHT22;7827;53.594;9.938;2022-07-09T01:43:33;15.90;99.90
15452;DHT22;7827;53.594;9.938;2022-07-09T01:46:01;15.90;99.90
15452;DHT22;7827;53.594;9.938;2022-07-09T01:48:29;15.90;99.90
15452;DHT22;7827;53.594;9.938;2022-07-09T01:50:58;15.90;99.90
15452;DHT22;7827;53.594;9.938;2022-07-09T01:53:26;15.90;99.90
15452;DHT22;7827;53.594;9.938;2022-07-09T01:55:56;15.80;99.90
15452;DHT22;7827;53.594;9.938;2022-07-09T01:58:24;15.70;99.90
15452;DHT22;7827;53.594;9.938;2022-07-09T02:00:53;15.70;99.90
15452;DHT22;7827;53.594;9.938;2022-07-09T02:03:21;15.80;99.90
15452;DHT22;7827;53.594;9.938;2022-07-09T02:05:50;15.80;99.90
15452;DHT22;7827;53.594;9.938;2022-07-09T02:08:19;15.80;99.90
15452;DHT22;7827;53.594;9.938;2022-07-09T02:10:47;15.80;99.90
15452;DHT22;7827;53.594;9.938;2022-07-09T02:13:17;15.80;99.90
15452;DHT22;7827;53.594;9.938;2022-07-09T02:15:46;15.80;99.90
15452;DHT22;7827;53.594;9.938;2022-07-09T02:18:14;15.90;99.90
15452;DHT22;7827;53.594;9.938;2022-07-09T02:20:42;15.90;99.90
15452;DHT22;7827;53.594;9.938;2022-07-09T02:23:11;15.90;99.90
15452;DHT22;7827;53.594;9.938;2022-07-09T02:25:39;15.90;99.90
15452;DHT22;7827;53.594;9.938;2022-07-09T02:28:07;15.80;99.90
15452;DHT22;7827;53.594;9.938;2022-07-09T02:30:37;15.80;99.90
15452;DHT22;7827;53.594;9.938;2022-07-09T02:33:06;15.80;99.90
15452;DHT22;7827;53.594;9.938;2022-07-09T02:35:34;15.80;99.90
15452;DHT22;7827;53.594;9.938;2022-07-09T02:38:03;15.80;99.90
15452;DHT22;7827;53.594;9.938;2022-07-09T02:40:31;15.80;99.90
15452;DHT22;7827;53.594;9.938;2022-07-09T02:42:59;15.90;99.90
15452;DHT22;7827;53.594;9.938;2022-07-09T02:45:28;16.00;99.90
15452;DHT22;7827;53.594;9.938;2022-07-09T02:47:57;15.90;99.90
15452;DHT22;7827;53.594;9.938;2022-07-09T02:50:26;15.90;99.90
15452;DHT22;7827;53.594;9.938;2022-07-09T02:52:54;15.90;99.90
15452;DHT22;7827;53.594;9.938;2022-07-09T02:55:23;16.00;99.90
15452;DHT22;7827;53.594;9.938;2022-07-09T02:57:51;15.90;99.90
15452;DHT22;7827;53.594;9.938;2022-07-09T03:00:19;15.80;99.90
15452;DHT22;7827;53.594;9.938;2022-07-09T03:02:48;15.90;99.90
15452;DHT22;7827;53.594;9.938;2022-07-09T03:05:18;16.00;99.90
15452;DHT22;7827;53.594;9.938;2022-07-09T03:07:46;15.90;99.90
15452;DHT22;7827;53.594;9.938;2022-07-09T03:10:15;15.90;99.90
15452;DHT22;7827;53.594;9.938;2022-07-09T03:12:43;15.90;99.90
15452;DHT22;7827;53.594;9.938;2022-07-09T03:15:11;16.00;99.90
15452;DHT22;7827;53.594;9.938;2022-07-09T03:17:41;16.00;99.90
15452;DHT22;7827;53.594;9.938;2022-07-09T03:20:11;16.00;99.90
15452;DHT22;7827;53.594;9.938;2022-07-09T03:22:41;16.00;99.90
15452;DHT22;7827;53.594;9.938;2022-07-09T03:25:09;16.00;99.90
15452;DHT22;7827;53.594;9.938;2022-07-09T03:27:38;16.00;99.90
15452;DHT22;7827;53.594;9.938;2022-07-09T03:30:07;16.00;99.90
15452;DHT22;7827;53.594;9.938;2022-07-09T03:32:36;16.10;99.90
15452;DHT22;7827;53.594;9.938;2022-07-09T03:35:05;16.00;99.90
15452;DHT22;7827;53.594;9.938;2022-07-09T03:37:34;16.00;99.90
15452;DHT22;7827;53.594;9.938;2022-07-09T03:40:06;16.10;99.90
15452;DHT22;7827;53.594;9.938;2022-07-09T03:42:35;16.10;99.90
15452;DHT22;7827;53.594;9.938;2022-07-09T03:45:04;16.00;99.90
15452;DHT22;7827;53.594;9.938;2022-07-09T03:47:34;16.00;99.90
15452;DHT22;7827;53.594;9.938;2022-07-09T03:50:03;16.10;99.90
15452;DHT22;7827;53.594;9.938;2022-07-09T03:52:32;16.00;99.90
15452;DHT22;7827;53.594;9.938;2022-07-09T03:55:00;16.10;99.90
15452;DHT22;7827;53.594;9.938;2022-07-09T03:57:30;16.10;99.90
15452;DHT22;7827;53.594;9.938;2022-07-09T03:59:59;16.10;99.90
15452;DHT22;7827;53.594;9.938;2022-07-09T04:02:38;16.10;99.90
15452;DHT22;7827;53.594;9.938;2022-07-09T04:05:07;16.10;99.90
15452;DHT22;7827;53.594;9.938;2022-07-09T04:07:36;16.10;99.90
15452;DHT22;7827;53.594;9.938;2022-07-09T04:10:07;16.10;99.90
15452;DHT22;7827;53.594;9.938;2022-07-09T04:12:37;16.10;99.90
15452;DHT22;7827;53.594;9.938;2022-07-09T04:15:07;16.10;99.90
15452;DHT22;7827;53.594;9.938;2022-07-09T04:17:36;16.20;99.90
15452;DHT22;7827;53.594;9.938;2022-07-09T04:20:05;16.10;99.90
15452;DHT22;7827;53.594;9.938;2022-07-09T04:22:34;16.10;99.90
15452;DHT22;7827;53.594;9.938;2022-07-09T04:25:03;16.20;99.90
15452;DHT22;7827;53.594;9.938;2022-07-09T04:27:32;16.20;99.90
15452;DHT22;7827;53.594;9.938;2022-07-09T04:30:05;16.20;99.90
15452;DHT22;7827;53.594;9.938;2022-07-09T04:32:34;16.20;99.90
15452;DHT22;7827;53.594;9.938;2022-07-09T04:35:03;16.20;99.90
15452;DHT22;7827;53.594;9.938;2022-07-09T04:37:32;16.20;99.90
15452;DHT22;7827;53.594;9.938;2022-07-09T04:40:01;16.20;99.90
15452;DHT22;7827;53.594;9.938;2022-07-09T04:42:30;16.30;99.90
15452;DHT22;7827;53.594;9.938;2022-07-09T04:44:58;16.20;99.90
15452;DHT22;7827;53.594;9.938;2022-07-09T04:47:28;16.20;99.90
15452;DHT22;7827;53.594;9.938;2022-07-09T04:49:56;16.30;99.90
15452;DHT22;7827;53.594;9.938;2022-07-09T04:52:24;16.30;99.90
15452;DHT22;7827;53.594;9.938;2022-07-09T04:54:54;16.30;99.90
15452;DHT22;7827;53.594;9.938;2022-07-09T04:57:23;16.30;99.90
15452;DHT22;7827;53.594;9.938;2022-07-09T04:59:52;16.30;99.90
15452;DHT22;7827;53.594;9.938;2022-07-09T05:02:21;16.30;99.90
15452;DHT22;7827;53.594;9.938;2022-07-09T05:04:51;16.30;99.90
15452;DHT22;7827;53.594;9.938;2022-07-09T05:07:19;16.30;99.90
15452;DHT22;7827;53.594;9.938;2022-07-09T05:09:47;16.40;99.90
15452;DHT22;7827;53.594;9.938;2022-07-09T05:12:16;16.40;99.90
15452;DHT22;7827;53.594;9.938;2022-07-09T05:14:44;16.40;99.90
15452;DHT22;7827;53.594;9.938;2022-07-09T05:17:13;16.40;99.90
15452;DHT22;7827;53.594;9.938;2022-07-09T05:19:42;16.50;99.90
15452;DHT22;7827;53.594;9.938;2022-07-09T05:22:12;16.50;99.90
15452;DHT22;7827;53.594;9.938;2022-07-09T05:24:40;16.50;99.90
15452;DHT22;7827;53.594;9.938;2022-07-09T05:27:09;16.50;99.90
15452;DHT22;7827;53.594;9.938;2022-07-09T05:29:37;16.50;99.90
15452;DHT22;7827;53.594;9.938;2022-07-09T05:32:06;16.60;99.90
15452;DHT22;7827;53.594;9.938;2022-07-09T05:34:35;16.60;99.90
15452;DHT22;7827;53.594;9.938;2022-07-09T05:37:05;16.70;99.90
15452;DHT22;7827;53.594;9.938;2022-07-09T05:39:40;16.70;99.90
15452;DHT22;7827;53.594;9.938;2022-07-09T05:42:09;16.60;99.90
15452;DHT22;7827;53.594;9.938;2022-07-09T05:44:38;16.60;99.90
15452;DHT22;7827;53.594;9.938;2022-07-09T05:47:06;16.60;99.90
15452;DHT22;7827;53.594;9.938;2022-07-09T05:49:35;16.60;99.90
15452;DHT22;7827;53.594;9.938;2022-07-09T05:52:04;16.60;99.90
15452;DHT22;7827;53.594;9.938;2022-07-09T05:54:35;16.60;99.90
15452;DHT22;7827;53.594;9.938;2022-07-09T05:57:06;16.60;99.90
15452;DHT22;7827;53.594;9.938;2022-07-09T05:59:34;16.60;99.90
15452;DHT22;7827;53.594;9.938;2022-07-09T06:02:03;16.70;99.90
15452;DHT22;7827;53.594;9.938;2022-07-09T06:04:32;16.70;99.90
15452;DHT22;7827;53.594;9.938;2022-07-09T06:07:02;16.70;99.90
15452;DHT22;7827;53.594;9.938;2022-07-09T06:09:30;16.70;99.90
15452;DHT22;7827;53.594;9.938;2022-07-09T06:11:59;16.70;99.90
15452;DHT22;7827;53.594;9.938;2022-07-09T06:14:29;16.60;99.90
15452;DHT22;7827;53.594;9.938;2022-07-09T06:16:57;16.70;99.90
15452;DHT22;7827;53.594;9.938;2022-07-09T06:19:32;16.70;99.90
15452;DHT22;7827;53.594;9.938;2022-07-09T06:22:02;16.80;99.90
15452;DHT22;7827;53.594;9.938;2022-07-09T06:24:31;16.80;99.90
15452;DHT22;7827;53.594;9.938;2022-07-09T06:26:59;16.90;99.90
15452;DHT22;7827;53.594;9.938;2022-07-09T06:29:29;16.90;99.90
15452;DHT22;7827;53.594;9.938;2022-07-09T06:31:57;17.00;99.90
15452;DHT22;7827;53.594;9.938;2022-07-09T06:34:27;17.20;99.90
15452;DHT22;7827;53.594;9.938;2022-07-09T06:36:56;17.30;99.90
15452;DHT22;7827;53.594;9.938;2022-07-09T06:39:24;17.40;99.90
15452;DHT22;7827;53.594;9.938;2022-07-09T06:42:10;17.50;99.90
15452;DHT22;7827;53.594;9.938;2022-07-09T06:44:45;17.60;99.90
15452;DHT22;7827;53.594;9.938;2022-07-09T06:47:13;17.60;99.90
15452;DHT22;7827;53.594;9.938;2022-07-09T06:49:42;17.60;99.90
15452;DHT22;7827;53.594;9.938;2022-07-09T06:52:10;17.70;99.90
15452;DHT22;7827;53.594;9.938;2022-07-09T06:54:39;17.70;99.90
15452;DHT22;7827;53.594;9.938;2022-07-09T06:57:07;17.80;99.90
15452;DHT22;7827;53.594;9.938;2022-07-09T06:59:37;18.00;99.90
15452;DHT22;7827;53.594;9.938;2022-07-09T07:02:06;18.00;99.90
15452;DHT22;7827;53.594;9.938;2022-07-09T07:04:35;18.10;99.90
15452;DHT22;7827;53.594;9.938;2022-07-09T07:07:04;18.10;99.90
15452;DHT22;7827;53.594;9.938;2022-07-09T07:09:33;18.20;99.90
15452;DHT22;7827;53.594;9.938;2022-07-09T07:12:01;18.20;99.90
15452;DHT22;7827;53.594;9.938;2022-07-09T07:14:30;18.20;99.90
15452;DHT22;7827;53.594;9.938;2022-07-09T07:16:58;18.20;99.90
15452;DHT22;7827;53.594;9.938;2022-07-09T07:19:28;18.20;99.90
15452;DHT22;7827;53.594;9.938;2022-07-09T07:21:56;18.00;99.90
15452;DHT22;7827;53.594;9.938;2022-07-09T07:24:25;17.90;99.90
15452;DHT22;7827;53.594;9.938;2022-07-09T07:26:53;18.00;99.90
15452;DHT22;7827;53.594;9.938;2022-07-09T07:29:23;18.00;99.90
15452;DHT22;7827;53.594;9.938;2022-07-09T07:31:53;18.20;99.90
15452;DHT22;7827;53.594;9.938;2022-07-09T07:34:23;18.20;99.90
15452;DHT22;7827;53.594;9.938;2022-07-09T07:36:53;18.30;99.90
15452;DHT22;7827;53.594;9.938;2022-07-09T07:39:22;18.50;99.90
15452;DHT22;7827;53.594;9.938;2022-07-09T07:41:52;18.70;99.90
15452;DHT22;7827;53.594;9.938;2022-07-09T07:44:20;18.70;99.90
15452;DHT22;7827;53.594;9.938;2022-07-09T07:46:50;18.70;99.90
15452;DHT22;7827;53.594;9.938;2022-07-09T07:49:18;18.90;99.90
15452;DHT22;7827;53.594;9.938;2022-07-09T07:51:46;19.10;99.90
15452;DHT22;7827;53.594;9.938;2022-07-09T07:54:16;19.20;99.90
15452;DHT22;7827;53.594;9.938;2022-07-09T07:56:45;19.20;99.90
15452;DHT22;7827;53.594;9.938;2022-07-09T07:59:13;19.30;99.90
15452;DHT22;7827;53.594;9.938;2022-07-09T08:01:41;19.40;99.90
15452;DHT22;7827;53.594;9.938;2022-07-09T08:04:10;19.40;99.90
15452;DHT22;7827;53.594;9.938;2022-07-09T08:06:38;19.40;99.90
15452;DHT22;7827;53.594;9.938;2022-07-09T08:09:07;19.40;99.90
15452;DHT22;7827;53.594;9.938;2022-07-09T08:11:36;19.20;99.90
15452;DHT22;7827;53.594;9.938;2022-07-09T08:14:04;19.10;99.90
15452;DHT22;7827;53.594;9.938;2022-07-09T08:16:34;19.00;99.90
15452;DHT22;7827;53.594;9.938;2022-07-09T08:19:02;19.10;99.90
15452;DHT22;7827;53.594;9.938;2022-07-09T08:21:31;19.30;99.90
15452;DHT22;7827;53.594;9.938;2022-07-09T08:23:59;19.40;99.90
15452;DHT22;7827;53.594;9.938;2022-07-09T08:26:31;19.30;99.90
15452;DHT22;7827;53.594;9.938;2022-07-09T08:29:01;19.30;99.90
15452;DHT22;7827;53.594;9.938;2022-07-09T08:31:29;19.20;99.90
15452;DHT22;7827;53.594;9.938;2022-07-09T08:33:57;19.20;99.90
15452;DHT22;7827;53.594;9.938;2022-07-09T08:36:26;19.30;99.90
15452;DHT22;7827;53.594;9.938;2022-07-09T08:38:54;19.40;99.90
15452;DHT22;7827;53.594;9.938;2022-07-09T08:41:23;19.20;99.90
15452;DHT22;7827;53.594;9.938;2022-07-09T08:43:53;19.20;99.90
15452;DHT22;7827;53.594;9.938;2022-07-09T08:46:23;19.10;99.90
15452;DHT22;7827;53.594;9.938;2022-07-09T08:48:52;19.30;99.90
15452;DHT22;7827;53.594;9.938;2022-07-09T08:51:22;19.40;99.90
15452;DHT22;7827;53.594;9.938;2022-07-09T08:53:53;19.80;99.90
15452;DHT22;7827;53.594;9.938;2022-07-09T08:56:22;20.00;99.90
15452;DHT22;7827;53.594;9.938;2022-07-09T08:58:51;20.00;99.90
15452;DHT22;7827;53.594;9.938;2022-07-09T09:01:19;20.20;99.90
15452;DHT22;7827;53.594;9.938;2022-07-09T09:03:49;20.50;99.90
15452;DHT22;7827;53.594;9.938;2022-07-09T09:06:21;20.60;99.90
15452;DHT22;7827;53.594;9.938;2022-07-09T09:09:01;20.80;99.90
15452;DHT22;7827;53.594;9.938;2022-07-09T09:11:30;20.70;99.90
15452;DHT22;7827;53.594;9.938;2022-07-09T09:13:58;20.80;99.90
15452;DHT22;7827;53.594;9.938;2022-07-09T09:16:26;20.90;99.90
15452;DHT22;7827;53.594;9.938;2022-07-09T09:18:56;20.90;99.90
15452;DHT22;7827;53.594;9.938;2022-07-09T09:21:25;21.10;99.90
15452;DHT22;7827;53.594;9.938;2022-07-09T09:23:55;21.20;99.90
15452;DHT22;7827;53.594;9.938;2022-07-09T09:26:27;21.20;99.90
15452;DHT22;7827;53.594;9.938;2022-07-09T09:28:57;21.20;99.90
15452;DHT22;7827;53.594;9.938;2022-07-09T09:31:28;21.30;99.90
15452;DHT22;7827;53.594;9.938;2022-07-09T09:34:11;21.30;99.90
15452;DHT22;7827;53.594;9.938;2022-07-09T09:36:42;21.40;99.90
15452;DHT22;7827;53.594;9.938;2022-07-09T09:39:13;21.50;99.90
15452;DHT22;7827;53.594;9.938;2022-07-09T09:41:45;21.60;99.90
15452;DHT22;7827;53.594;9.938;2022-07-09T09:44:15;21.60;99.90
15452;DHT22;7827;53.594;9.938;2022-07-09T09:46:45;21.50;99.90
15452;DHT22;7827;53.594;9.938;2022-07-09T09:49:16;21.60;99.90
15452;DHT22;7827;53.594;9.938;2022-07-09T09:51:47;21.70;99.90
15452;DHT22;7827;53.594;9.938;2022-07-09T09:54:20;21.50;99.90
15452;DHT22;7827;53.594;9.938;2022-07-09T09:56:50;21.30;99.90
15452;DHT22;7827;53.594;9.938;2022-07-09T09:59:18;21.20;99.90
15452;DHT22;7827;53.594;9.938;2022-07-09T10:01:47;20.90;99.90
15452;DHT22;7827;53.594;9.938;2022-07-09T10:04:17;20.90;99.90
15452;DHT22;7827;53.594;9.938;2022-07-09T10:06:48;21.20;99.90
15452;DHT22;7827;53.594;9.938;2022-07-09T10:09:16;21.40;99.90
15452;DHT22;7827;53.594;9.938;2022-07-09T10:11:47;21.60;99.90
15452;DHT22;7827;53.594;9.938;2022-07-09T10:14:17;21.70;99.90
15452;DHT22;7827;53.594;9.938;2022-07-09T10:17:08;21.70;99.90
15452;DHT22;7827;53.594;9.938;2022-07-09T10:19:49;21.60;99.90
15452;DHT22;7827;53.594;9.938;2022-07-09T10:22:20;21.50;99.90
15452;DHT22;7827;53.594;9.938;2022-07-09T10:24:51;21.30;99.90
15452;DHT22;7827;53.594;9.938;2022-07-09T10:27:20;21.30;99.90
15452;DHT22;7827;53.594;9.938;2022-07-09T10:29:54;21.40;99.90
15452;DHT22;7827;53.594;9.938;2022-07-09T10:32:25;21.60;99.90
15452;DHT22;7827;53.594;9.938;2022-07-09T10:34:57;21.80;99.90
15452;DHT22;7827;53.594;9.938;2022-07-09T10:37:40;22.10;99.90
15452;DHT22;7827;53.594;9.938;2022-07-09T10:40:13;22.20;99.90
15452;DHT22;7827;53.594;9.938;2022-07-09T10:42:44;22.10;99.90
15452;DHT22;7827;53.594;9.938;2022-07-09T10:45:23;21.80;99.90
15452;DHT22;7827;53.594;9.938;2022-07-09T10:47:53;21.60;99.90
15452;DHT22;7827;53.594;9.938;2022-07-09T10:50:25;21.30;99.90
15452;DHT22;7827;53.594;9.938;2022-07-09T10:52:55;21.00;99.90
15452;DHT22;7827;53.594;9.938;2022-07-09T10:55:26;20.90;99.90
15452;DHT22;7827;53.594;9.938;2022-07-09T10:57:56;20.80;99.90
15452;DHT22;7827;53.594;9.938;2022-07-09T11:00:26;20.70;99.90
15452;DHT22;7827;53.594;9.938;2022-07-09T11:02:57;20.80;99.90
15452;DHT22;7827;53.594;9.938;2022-07-09T11:05:31;21.00;99.90
15452;DHT22;7827;53.594;9.938;2022-07-09T11:08:02;21.20;99.90
15452;DHT22;7827;53.594;9.938;2022-07-09T11:10:35;21.30;99.90
15452;DHT22;7827;53.594;9.938;2022-07-09T11:13:07;21.30;99.90
15452;DHT22;7827;53.594;9.938;2022-07-09T11:15:37;21.50;99.90
15452;DHT22;7827;53.594;9.938;2022-07-09T11:18:07;21.60;99.90
15452;DHT22;7827;53.594;9.938;2022-07-09T11:20:40;21.80;99.90
15452;DHT22;7827;53.594;9.938;2022-07-09T11:23:11;21.90;99.90
15452;DHT22;7827;53.594;9.938;2022-07-09T11:25:41;22.10;99.90
15452;DHT22;7827;53.594;9.938;2022-07-09T11:28:18;22.10;99.90
15452;DHT22;7827;53.594;9.938;2022-07-09T11:30:57;22.20;99.90
15452;DHT22;7827;53.594;9.938;2022-07-09T11:33:27;22.40;99.90
15452;DHT22;7827;53.594;9.938;2022-07-09T11:36:19;22.50;99.90
15452;DHT22;7827;53.594;9.938;2022-07-09T11:38:48;22.30;99.90
15452;DHT22;7827;53.594;9.938;2022-07-09T11:41:17;22.50;99.90
15452;DHT22;7827;53.594;9.938;2022-07-09T11:43:47;22.60;99.90
15452;DHT22;7827;53.594;9.938;2022-07-09T11:46:17;22.50;99.90
15452;DHT22;7827;53.594;9.938;2022-07-09T11:48:50;22.10;99.90
15452;DHT22;7827;53.594;9.938;2022-07-09T11:51:28;21.90;99.90
15452;DHT22;7827;53.594;9.938;2022-07-09T11:53:59;21.80;99.90
15452;DHT22;7827;53.594;9.938;2022-07-09T11:56:38;21.50;99.90
15452;DHT22;7827;53.594;9.938;2022-07-09T11:59:07;21.30;99.90
15452;DHT22;7827;53.594;9.938;2022-07-09T12:01:36;21.40;99.90
15452;DHT22;7827;53.594;9.938;2022-07-09T12:04:05;21.50;99.90
15452;DHT22;7827;53.594;9.938;2022-07-09T12:06:47;21.60;99.90
15452;DHT22;7827;53.594;9.938;2022-07-09T12:09:27;22.00;99.90
15452;DHT22;7827;53.594;9.938;2022-07-09T12:11:58;22.40;99.90
15452;DHT22;7827;53.594;9.938;2022-07-09T12:14:27;22.50;99.90
15452;DHT22;7827;53.594;9.938;2022-07-09T12:16:57;22.40;99.90
15452;DHT22;7827;53.594;9.938;2022-07-09T12:19:25;22.20;99.90
15452;DHT22;7827;53.594;9.938;2022-07-09T12:21:55;21.90;99.90
15452;DHT22;7827;53.594;9.938;2022-07-09T12:24:25;21.70;99.90
15452;DHT22;7827;53.594;9.938;2022-07-09T12:26:53;21.70;99.90
15452;DHT22;7827;53.594;9.938;2022-07-09T12:29:42;21.40;99.90
15452;DHT22;7827;53.594;9.938;2022-07-09T12:32:10;21.40;99.90
15452;DHT22;7827;53.594;9.938;2022-07-09T12:34:39;21.50;99.90
15452;DHT22;7827;53.594;9.938;2022-07-09T12:37:09;21.50;99.90
15452;DHT22;7827;53.594;9.938;2022-07-09T12:39:37;21.40;99.90
15452;DHT22;7827;53.594;9.938;2022-07-09T12:42:06;21.40;99.90
15452;DHT22;7827;53.594;9.938;2022-07-09T12:44:34;21.30;99.90
15452;DHT22;7827;53.594;9.938;2022-07-09T12:47:03;21.00;99.90
15452;DHT22;7827;53.594;9.938;2022-07-09T12:49:32;21.00;99.90
15452;DHT22;7827;53.594;9.938;2022-07-09T12:52:01;20.90;99.90
15452;DHT22;7827;53.594;9.938;2022-07-09T12:54:31;21.00;99.90
15452;DHT22;7827;53.594;9.938;2022-07-09T12:57:00;21.00;99.90
15452;DHT22;7827;53.594;9.938;2022-07-09T12:59:35;21.20;99.90
15452;DHT22;7827;53.594;9.938;2022-07-09T13:02:05;21.30;99.90
15452;DHT22;7827;53.594;9.938;2022-07-09T13:04:34;21.40;99.90
15452;DHT22;7827;53.594;9.938;2022-07-09T13:07:03;21.50;99.90
15452;DHT22;7827;53.594;9.938;2022-07-09T13:09:32;21.50;99.90
15452;DHT22;7827;53.594;9.938;2022-07-09T13:12:01;21.60;99.90
15452;DHT22;7827;53.594;9.938;2022-07-09T13:14:30;21.60;99.90
15452;DHT22;7827;53.594;9.938;2022-07-09T13:16:59;21.60;99.90
15452;DHT22;7827;53.594;9.938;2022-07-09T13:19:48;21.50;99.90
15452;DHT22;7827;53.594;9.938;2022-07-09T13:22:18;21.30;99.90
15452;DHT22;7827;53.594;9.938;2022-07-09T13:24:48;21.30;99.90
15452;DHT22;7827;53.594;9.938;2022-07-09T13:27:16;21.20;99.90
15452;DHT22;7827;53.594;9.938;2022-07-09T13:29:46;21.20;99.90
15452;DHT22;7827;53.594;9.938;2022-07-09T13:32:15;21.00;99.90
15452;DHT22;7827;53.594;9.938;2022-07-09T13:34:48;20.90;99.90
15452;DHT22;7827;53.594;9.938;2022-07-09T13:37:17;21.00;99.90
15452;DHT22;7827;53.594;9.938;2022-07-09T13:39:47;21.20;99.90
15452;DHT22;7827;53.594;9.938;2022-07-09T13:42:16;21.30;99.90
15452;DHT22;7827;53.594;9.938;2022-07-09T13:44:44;21.30;99.90
15452;DHT22;7827;53.594;9.938;2022-07-09T13:47:12;21.20;99.90
15452;DHT22;7827;53.594;9.938;2022-07-09T13:49:41;21.10;99.90
15452;DHT22;7827;53.594;9.938;2022-07-09T13:52:10;20.70;99.90
15452;DHT22;7827;53.594;9.938;2022-07-09T13:54:38;20.50;99.90
15452;DHT22;7827;53.594;9.938;2022-07-09T13:57:07;20.50;99.90
15452;DHT22;7827;53.594;9.938;2022-07-09T13:59:36;20.40;99.90
15452;DHT22;7827;53.594;9.938;2022-07-09T14:02:04;20.30;99.90
15452;DHT22;7827;53.594;9.938;2022-07-09T14:04:33;20.10;99.90
15452;DHT22;7827;53.594;9.938;2022-07-09T14:07:02;20.10;99.90
15452;DHT22;7827;53.594;9.938;2022-07-09T14:09:31;20.20;99.90
15452;DHT22;7827;53.594;9.938;2022-07-09T14:11:59;20.20;99.90
15452;DHT22;7827;53.594;9.938;2022-07-09T14:14:28;20.10;99.90
15452;DHT22;7827;53.594;9.938;2022-07-09T14:16:57;19.80;99.90
15452;DHT22;7827;53.594;9.938;2022-07-09T14:19:25;19.90;99.90
15452;DHT22;7827;53.594;9.938;2022-07-09T14:21:53;20.00;99.90
15452;DHT22;7827;53.594;9.938;2022-07-09T14:24:22;20.20;99.90
15452;DHT22;7827;53.594;9.938;2022-07-09T14:26:50;20.40;99.90
15452;DHT22;7827;53.594;9.938;2022-07-09T14:29:18;20.40;99.90
15452;DHT22;7827;53.594;9.938;2022-07-09T14:31:51;20.50;99.90
15452;DHT22;7827;53.594;9.938;2022-07-09T14:34:19;20.50;99.90
15452;DHT22;7827;53.594;9.938;2022-07-09T14:36:49;20.70;99.90
15452;DHT22;7827;53.594;9.938;2022-07-09T14:39:18;20.80;99.90
15452;DHT22;7827;53.594;9.938;2022-07-09T14:41:48;21.00;99.90
15452;DHT22;7827;53.594;9.938;2022-07-09T14:44:16;21.10;99.90
15452;DHT22;7827;53.594;9.938;2022-07-09T14:46:45;21.00;99.90
15452;DHT22;7827;53.594;9.938;2022-07-09T14:49:15;21.00;99.90
15452;DHT22;7827;53.594;9.938;2022-07-09T14:51:44;21.10;99.90
15452;DHT22;7827;53.594;9.938;2022-07-09T14:54:12;21.00;99.90
15452;DHT22;7827;53.594;9.938;2022-07-09T14:56:41;20.70;99.90
15452;DHT22;7827;53.594;9.938;2022-07-09T14:59:09;20.60;99.90
15452;DHT22;7827;53.594;9.938;2022-07-09T15:01:39;20.30;99.90
15452;DHT22;7827;53.594;9.938;2022-07-09T15:04:07;19.90;99.90
15452;DHT22;7827;53.594;9.938;2022-07-09T15:06:36;19.80;99.90
15452;DHT22;7827;53.594;9.938;2022-07-09T15:09:05;19.80;99.90
15452;DHT22;7827;53.594;9.938;2022-07-09T15:11:33;19.60;99.90
15452;DHT22;7827;53.594;9.938;2022-07-09T15:14:08;19.50;99.90
15452;DHT22;7827;53.594;9.938;2022-07-09T15:16:36;19.40;99.90
15452;DHT22;7827;53.594;9.938;2022-07-09T15:19:06;19.40;99.90
15452;DHT22;7827;53.594;9.938;2022-07-09T15:21:34;19.40;99.90
15452;DHT22;7827;53.594;9.938;2022-07-09T15:24:04;19.30;99.90
15452;DHT22;7827;53.594;9.938;2022-07-09T15:26:33;19.40;99.90
15452;DHT22;7827;53.594;9.938;2022-07-09T15:29:01;19.50;99.90
15452;DHT22;7827;53.594;9.938;2022-07-09T15:31:31;19.50;99.90
15452;DHT22;7827;53.594;9.938;2022-07-09T15:33:59;19.60;99.90
15452;DHT22;7827;53.594;9.938;2022-07-09T15:36:31;19.60;99.90
15452;DHT22;7827;53.594;9.938;2022-07-09T15:39:00;19.50;99.90
15452;DHT22;7827;53.594;9.938;2022-07-09T15:41:29;19.40;99.90
15452;DHT22;7827;53.594;9.938;2022-07-09T15:44:03;19.30;99.90
15452;DHT22;7827;53.594;9.938;2022-07-09T15:46:32;19.30;99.90
15452;DHT22;7827;53.594;9.938;2022-07-09T15:49:01;19.30;99.90
15452;DHT22;7827;53.594;9.938;2022-07-09T15:51:30;19.30;99.90
15452;DHT22;7827;53.594;9.938;2022-07-09T15:53:58;19.20;99.90
15452;DHT22;7827;53.594;9.938;2022-07-09T15:56:33;19.20;99.90
15452;DHT22;7827;53.594;9.938;2022-07-09T15:59:01;19.10;99.90
15452;DHT22;7827;53.594;9.938;2022-07-09T16:01:29;18.90;99.90